Terminal Aerodrome Forecast
Issued by NWS Newport/Morehead City, NC

Home | Current Version | Previous Version | Text Only | Print | Product List | Glossary On
Versions: 1 2 3 4 5 6 7 8 9 10 11 12 13 14 15 16 17
000
FTUS42 KMHX 011722
TAFEWN
TAF
KEWN 011722Z 0118/0218 31005KT P6SM SCT050
     FM020600 00000KT 3SM BR SCT005
     FM021300 VRB03KT P6SM SCT250
     FM021700 VRB03KT P6SM BKN250=

USA.gov is the U.S. government's official web portal to all federal, state and local government web resources and services.